Time;durP1;ratioP1;P1;durP2;ratioP2;P2;SDS_P1;SDS_P2;PMS_P1;PMS_P2;Temp;Humidity;BMP_temperature;BMP_pressure;BME280_temperature;BME280_humidity;BME280_pressure;Samples;Min_cycle;Max_cycle;Signal;HPM_P1;HPM_P2
2023/05/06 00:02:06;;;;;;;4.30;3.60;;;;;;;10.58;100.00;97595.48;110450;1240;69192;-73
2023/05/06 00:04:37;;;;;;;4.80;3.40;;;;;;;10.58;100.00;97592.37;110395;1246;69231;-74
2023/05/06 00:07:09;;;;;;;4.30;3.60;;;;;;;10.58;100.00;97592.55;110607;1241;59737;-75
2023/05/06 00:09:39;;;;;;;4.70;4.00;;;;;;;10.57;100.00;97594.20;110564;1242;59736;-75
2023/05/06 00:12:10;;;;;;;6.00;4.90;;;;;;;10.53;100.00;97592.36;110432;1242;70936;-74
2023/05/06 00:14:40;;;;;;;10.00;7.30;;;;;;;10.48;100.00;97593.60;110469;1243;69193;-74
2023/05/06 00:17:11;;;;;;;8.00;7.00;;;;;;;10.45;100.00;97589.98;110827;1241;68513;-74
2023/05/06 00:19:43;;;;;;;9.70;7.40;;;;;;;10.43;100.00;97585.54;110254;1241;59811;-74
2023/05/06 00:22:14;;;;;;;8.40;6.50;;;;;;;10.42;99.83;97586.82;110343;1242;59699;-75
2023/05/06 00:24:46;;;;;;;8.50;7.50;;;;;;;10.42;100.00;97586.66;110313;1241;71709;-75
2023/05/06 00:27:17;;;;;;;8.90;7.20;;;;;;;10.42;100.00;97585.82;110268;1242;69256;-74
2023/05/06 00:29:48;;;;;;;7.20;5.90;;;;;;;10.40;100.00;97582.98;110281;1241;68583;-75
2023/05/06 00:32:19;;;;;;;7.60;6.30;;;;;;;10.37;100.00;97581.81;110305;1242;59722;-74
2023/05/06 00:34:50;;;;;;;8.00;6.10;;;;;;;10.30;100.00;97579.83;110236;1242;59701;-74
2023/05/06 00:37:21;;;;;;;6.40;5.30;;;;;;;10.24;100.00;97580.61;110192;1242;71472;-73
2023/05/06 00:39:52;;;;;;;6.80;5.70;;;;;;;10.18;100.00;97577.63;110236;1242;68944;-74
2023/05/06 00:42:25;;;;;;;7.10;6.00;;;;;;;10.15;100.00;97575.29;110179;1240;69299;-74
2023/05/06 00:44:56;;;;;;;6.40;5.80;;;;;;;10.12;100.00;97572.89;110175;1241;59788;-74
2023/05/06 00:47:27;;;;;;;8.00;6.50;;;;;;;10.08;100.00;97574.70;110218;1242;59671;-74
2023/05/06 00:49:59;;;;;;;7.80;6.70;;;;;;;10.03;100.00;97577.88;110145;1242;71554;-74
2023/05/06 00:52:29;;;;;;;7.40;6.50;;;;;;;9.96;100.00;97578.13;110228;1242;69234;-74
2023/05/06 00:55:00;;;;;;;7.40;6.30;;;;;;;9.91;100.00;97576.55;110240;1240;69287;-74
2023/05/06 00:57:30;;;;;;;6.50;5.30;;;;;;;9.87;99.95;97576.14;110195;1244;59753;-74
2023/05/06 01:00:03;;;;;;;6.90;5.40;;;;;;;9.84;98.65;97571.48;110244;1242;60180;-74
2023/05/06 01:02:34;;;;;;;7.40;6.60;;;;;;;9.79;99.34;97571.14;110204;1242;71673;-74
2023/05/06 01:05:20;;;;;;;7.70;6.30;;;;;;;9.74;100.00;97571.84;110217;1244;69257;-74
2023/05/06 01:08:14;;;;;;;8.10;6.30;;;;;;;9.67;100.00;97572.91;110220;1242;68568;-74
2023/05/06 01:10:54;;;;;;;7.70;5.90;;;;;;;9.59;100.00;97572.26;110210;1242;59738;-74
2023/05/06 01:13:46;;;;;;;8.10;6.40;;;;;;;9.51;100.00;97570.20;110188;1242;59751;-74
2023/05/06 01:16:22;;;;;;;8.40;6.70;;;;;;;9.42;100.00;97570.06;110057;1244;71239;-73
2023/05/06 01:18:57;;;;;;;9.10;6.90;;;;;;;9.35;100.00;97569.00;110205;1242;69200;-75
2023/05/06 01:21:33;;;;;;;8.30;6.40;;;;;;;9.28;100.00;97565.25;110206;1241;69281;-73
2023/05/06 01:24:04;;;;;;;9.40;6.60;;;;;;;9.22;100.00;97570.55;110134;1241;59812;-73
2023/05/06 01:26:37;;;;;;;10.30;7.50;;;;;;;9.14;100.00;97569.98;110215;1242;59746;-73
2023/05/06 01:29:08;;;;;;;9.20;7.10;;;;;;;9.09;100.00;97575.35;110101;1244;70624;-74
2023/05/06 01:31:49;;;;;;;9.10;6.90;;;;;;;9.04;100.00;97577.23;110211;1242;68093;-73
2023/05/06 01:34:33;;;;;;;7.60;6.80;;;;;;;8.99;100.00;97575.67;110223;1249;68260;-74
2023/05/06 01:37:09;;;;;;;9.20;7.30;;;;;;;8.93;100.00;97576.52;110209;1249;59753;-73
2023/05/06 01:39:42;;;;;;;9.00;7.40;;;;;;;8.88;100.00;97577.23;110231;1242;59668;-74
2023/05/06 01:42:14;;;;;;;8.80;7.30;;;;;;;8.79;100.00;97577.58;110228;1245;71191;-74
2023/05/06 01:44:44;;;;;;;9.10;6.80;;;;;;;8.73;100.00;97582.36;110196;1241;67801;-73
2023/05/06 01:47:14;;;;;;;;;;;;;;;8.66;100.00;97581.88;110144;1245;68631;-74
2023/05/06 01:49:46;;;;;;;8.90;6.50;;;;;;;8.59;100.00;97579.89;110099;1245;59746;-74
2023/05/06 01:52:16;;;;;;;8.80;7.30;;;;;;;8.55;100.00;97578.92;110201;1241;59746;-74
2023/05/06 01:54:47;;;;;;;9.00;7.50;;;;;;;8.51;100.00;97581.29;110180;1242;71827;-74
2023/05/06 01:57:18;;;;;;;8.70;7.00;;;;;;;8.46;100.00;97584.69;110191;1242;69210;-74
2023/05/06 01:59:50;;;;;;;9.40;6.70;;;;;;;8.42;100.00;97583.05;110074;1242;69424;-74
2023/05/06 02:02:22;;;;;;;8.60;7.40;;;;;;;8.38;100.00;97586.06;110206;1242;59766;-74
2023/05/06 02:04:55;;;;;;;11.00;7.30;;;;;;;8.34;100.00;97587.31;110198;1242;59741;-73
2023/05/06 02:07:26;;;;;;;9.90;7.50;;;;;;;8.32;100.00;97585.38;109639;1241;734077;-74
2023/05/06 02:09:57;;;;;;;8.30;6.50;;;;;;;8.28;100.00;97582.48;110109;1240;68859;-73
2023/05/06 02:12:29;;;;;;;9.30;6.70;;;;;;;8.24;100.00;97582.35;110128;1241;69300;-73
2023/05/06 02:15:03;;;;;;;8.50;7.00;;;;;;;8.21;100.00;97584.46;110060;1244;59696;-73
2023/05/06 02:17:35;;;;;;;9.40;7.10;;;;;;;8.17;100.00;97583.64;110232;1242;59666;-73
2023/05/06 02:20:11;;;;;;;9.90;8.40;;;;;;;8.12;100.00;97579.75;110096;1240;71429;-73
2023/05/06 02:22:43;;;;;;;9.70;7.40;;;;;;;8.08;100.00;97580.17;110174;1244;69268;-74
2023/05/06 02:25:14;;;;;;;8.60;7.40;;;;;;;8.04;100.00;97580.27;110059;1245;69278;-73
2023/05/06 02:27:47;;;;;;;6.80;5.50;;;;;;;7.99;100.00;97579.88;110149;1242;59743;-73
2023/05/06 02:30:22;;;;;;;8.20;6.50;;;;;;;7.96;100.00;97581.64;110176;1242;59805;-73
2023/05/06 02:32:55;;;;;;;8.80;6.80;;;;;;;7.91;100.00;97575.63;110116;1245;70646;-73
2023/05/06 02:35:29;;;;;;;7.80;6.40;;;;;;;7.88;100.00;97578.61;110225;1242;69260;-73
2023/05/06 02:38:03;;;;;;;8.20;6.50;;;;;;;7.82;100.00;97576.34;110174;1242;69275;-74
2023/05/06 02:40:36;;;;;;;7.30;5.50;;;;;;;7.82;100.00;97578.27;110151;1240;59676;-73
2023/05/06 02:43:08;;;;;;;7.70;6.40;;;;;;;7.82;100.00;97578.30;110226;1242;59731;-73
2023/05/06 02:45:40;;;;;;;8.20;6.20;;;;;;;7.79;100.00;97579.54;110209;1242;70679;-72
2023/05/06 02:48:16;;;;;;;7.30;5.90;;;;;;;7.75;100.00;97581.80;110199;1240;67843;-73
2023/05/06 02:50:48;;;;;;;6.60;5.70;;;;;;;7.70;100.00;97586.42;110174;1241;68615;-72
2023/05/06 02:53:18;;;;;;;7.00;5.20;;;;;;;7.67;100.00;97585.25;110186;1245;59831;-73
2023/05/06 02:55:51;;;;;;;6.40;5.40;;;;;;;7.64;100.00;97585.92;110151;1242;59643;-73
2023/05/06 02:58:23;;;;;;;7.90;5.70;;;;;;;7.62;100.00;97584.64;110191;1242;72034;-73
2023/05/06 03:00:53;;;;;;;7.50;6.20;;;;;;;7.59;100.00;97590.38;110217;1242;68523;-75
2023/05/06 03:03:25;;;;;;;8.30;6.20;;;;;;;7.55;100.00;97590.59;110187;1241;69264;-75
2023/05/06 03:05:56;;;;;;;6.40;5.70;;;;;;;7.53;100.00;97596.09;110163;1242;59743;-74
2023/05/06 03:08:29;;;;;;;8.00;6.60;;;;;;;7.54;100.00;97596.59;110095;1245;59607;-73
2023/05/06 03:11:00;;;;;;;6.70;5.70;;;;;;;7.54;100.00;97591.03;110089;1242;71402;-74
2023/05/06 03:13:29;;;;;;;;;;;;;;;7.53;100.00;97591.23;110182;1242;69185;-73
2023/05/06 03:16:02;;;;;;;6.60;5.30;;;;;;;7.51;100.00;97591.39;110092;1245;69170;-75
2023/05/06 03:18:32;;;;;;;5.60;4.60;;;;;;;7.49;100.00;97586.80;110127;1245;59702;-73
2023/05/06 03:21:06;;;;;;;7.00;5.20;;;;;;;7.53;100.00;97590.73;110116;1245;59759;-73
2023/05/06 03:23:37;;;;;;;7.60;5.60;;;;;;;7.55;100.00;97592.50;110085;1241;71228;-74
2023/05/06 03:26:07;;;;;;;6.60;5.90;;;;;;;7.57;100.00;97593.95;110088;1241;69253;-74
2023/05/06 03:28:42;;;;;;;5.90;4.40;;;;;;;7.57;100.00;97599.52;110086;1242;69296;-74
2023/05/06 03:31:13;;;;;;;6.70;5.70;;;;;;;7.56;100.00;97603.38;110109;1247;59753;-74
2023/05/06 03:33:43;;;;;;;7.10;5.20;;;;;;;7.56;100.00;97603.91;110149;1240;59744;-74
2023/05/06 03:36:14;;;;;;;5.80;5.20;;;;;;;7.56;100.00;97604.06;110151;1242;71081;-74
2023/05/06 03:38:45;;;;;;;7.10;5.50;;;;;;;7.56;100.00;97609.95;110099;1245;68535;-74
2023/05/06 03:41:17;;;;;;;4.50;4.00;;;;;;;7.58;100.00;97606.57;110067;1244;69102;-74
2023/05/06 03:43:48;;;;;;;7.10;5.10;;;;;;;7.58;100.00;97609.86;110165;1242;59678;-74
2023/05/06 03:46:19;;;;;;;6.10;4.70;;;;;;;7.61;100.00;97606.56;110093;1241;59694;-74
2023/05/06 03:48:49;;;;;;;5.90;4.70;;;;;;;7.64;100.00;97610.57;110159;1244;72015;-74
2023/05/06 03:51:20;;;;;;;6.50;3.80;;;;;;;7.67;100.00;97612.29;110169;1240;69242;-74
2023/05/06 03:53:50;;;;;;;4.80;4.10;;;;;;;7.71;100.00;97612.77;110123;1245;69237;-74
2023/05/06 03:56:23;;;;;;;5.10;4.00;;;;;;;7.76;100.00;97615.27;110163;1245;59679;-74
2023/05/06 03:58:55;;;;;;;5.60;4.80;;;;;;;7.81;100.00;97615.65;110100;1240;59702;-74
2023/05/06 04:01:25;;;;;;;4.80;4.00;;;;;;;7.87;100.00;97614.42;110187;1243;71970;-74
2023/05/06 04:03:56;;;;;;;4.80;4.00;;;;;;;7.94;100.00;97616.27;110201;1241;69197;-74
2023/05/06 04:06:27;;;;;;;5.40;4.30;;;;;;;8.05;100.00;97614.02;110120;1245;69117;-74
2023/05/06 04:08:56;;;;;;;6.20;5.10;;;;;;;8.17;100.00;97614.20;110144;1242;59730;-75
2023/05/06 04:11:27;;;;;;;4.90;4.10;;;;;;;8.30;100.00;97614.15;110099;1241;59681;-74
2023/05/06 04:13:58;;;;;;;7.00;5.20;;;;;;;8.45;100.00;97613.91;110089;1244;70560;-74
2023/05/06 04:16:27;;;;;;;5.20;4.40;;;;;;;8.65;100.00;97617.74;110203;1242;69219;-75
2023/05/06 04:18:57;;;;;;;6.50;5.40;;;;;;;8.90;100.00;97617.38;110113;1242;68529;-75
2023/05/06 04:21:28;;;;;;;4.90;4.30;;;;;;;9.14;100.00;97618.63;110145;1245;59744;-75
2023/05/06 04:24:01;;;;;;;5.20;4.70;;;;;;;9.37;100.00;97624.68;110064;1245;59637;-75
2023/05/06 04:26:34;;;;;;;4.90;4.40;;;;;;;9.58;100.00;97622.98;110136;1241;71479;-75
2023/05/06 04:29:05;;;;;;;6.60;5.30;;;;;;;9.77;100.00;97623.77;110170;1242;69236;-75
2023/05/06 04:31:38;;;;;;;4.90;4.40;;;;;;;9.96;100.00;97623.38;110105;1241;70010;-75
2023/05/06 04:34:09;;;;;;;5.50;4.90;;;;;;;10.11;100.00;97619.09;110207;1242;60107;-74
2023/05/06 04:36:39;;;;;;;5.90;4.80;;;;;;;10.25;100.00;97622.16;110066;1245;59656;-75
2023/05/06 04:39:25;;;;;;;5.30;4.70;;;;;;;10.38;100.00;97625.13;109875;1241;71408;-74
2023/05/06 04:41:54;;;;;;;5.00;4.30;;;;;;;10.51;100.00;97630.85;109794;1245;69136;-75
2023/05/06 04:44:29;;;;;;;8.10;6.00;;;;;;;10.68;100.00;97631.05;110141;1244;68526;-74
2023/05/06 04:46:59;;;;;;;9.20;7.00;;;;;;;10.90;100.00;97636.31;110109;1241;59694;-73
2023/05/06 04:49:28;;;;;;;;;;;;;;;11.15;100.00;97637.88;109905;1241;59732;-76
2023/05/06 04:51:58;;;;;;;8.00;6.80;;;;;;;11.38;100.00;97638.45;110089;1241;70773;-76
2023/05/06 04:54:28;;;;;;;7.80;6.70;;;;;;;11.63;100.00;97637.66;110154;1241;69210;-75
2023/05/06 04:56:56;;;;;;;7.00;6.30;;;;;;;11.97;100.00;97633.98;109866;1245;69266;-75
2023/05/06 04:59:26;;;;;;;7.30;6.00;;;;;;;12.35;100.00;97633.04;110138;1241;59741;-74
2023/05/06 05:01:55;;;;;;;6.40;5.60;;;;;;;12.82;100.00;97632.17;110180;1243;59749;-74
2023/05/06 05:04:25;;;;;;;6.60;5.20;;;;;;;13.28;99.25;97631.36;110185;1241;71370;-73
2023/05/06 05:06:54;;;;;;;6.60;5.40;;;;;;;13.59;92.27;97633.05;109940;1245;69844;-75
2023/05/06 05:09:23;;;;;;;6.30;5.50;;;;;;;13.90;92.62;97632.94;110180;1241;69265;-75
2023/05/06 05:11:52;;;;;;;6.80;5.00;;;;;;;14.19;89.85;97632.07;110113;1243;59702;-73
2023/05/06 05:14:21;;;;;;;6.30;5.00;;;;;;;14.49;84.99;97632.08;109905;1245;59782;-74
2023/05/06 05:16:50;;;;;;;6.80;5.70;;;;;;;14.86;85.15;97643.29;110158;1241;71994;-75
2023/05/06 05:19:20;;;;;;;5.60;4.80;;;;;;;15.11;81.13;97639.52;110137;1241;68593;-73
2023/05/06 05:21:50;;;;;;;5.80;4.70;;;;;;;15.42;78.25;97644.55;110101;1246;68748;-75
2023/05/06 05:24:19;;;;;;;5.60;5.10;;;;;;;15.79;80.15;97642.45;110133;1244;59753;-74
2023/05/06 05:26:47;;;;;;;5.70;5.10;;;;;;;16.21;84.73;97643.89;109808;1245;59742;-74
2023/05/06 05:29:17;;;;;;;7.30;5.50;;;;;;;16.52;79.08;97642.98;110141;1241;71973;-75
2023/05/06 05:31:47;;;;;;;5.30;4.60;;;;;;;16.73;78.04;97648.52;110062;1245;69114;-74
2023/05/06 05:34:16;;;;;;;5.80;5.10;;;;;;;16.97;79.20;97653.03;109973;1241;70283;-74
2023/05/06 05:36:46;;;;;;;6.30;4.00;;;;;;;17.21;78.77;97650.16;109915;1241;59821;-74
2023/05/06 05:39:15;;;;;;;5.40;3.70;;;;;;;17.32;72.22;97648.02;110191;1244;59686;-75
2023/05/06 05:41:46;;;;;;;4.50;3.90;;;;;;;17.56;74.66;97649.80;110156;1245;71362;-74
2023/05/06 05:44:15;;;;;;;5.00;3.90;;;;;;;17.74;69.40;97649.98;110185;1244;69137;-73
2023/05/06 05:46:45;;;;;;;;;;;;;;;17.75;67.71;97646.99;110304;1241;70272;-74
2023/05/06 05:49:15;;;;;;;5.20;3.30;;;;;;;17.89;69.43;97644.91;110208;1242;59732;-75
2023/05/06 05:51:44;;;;;;;4.70;3.00;;;;;;;18.18;66.67;97646.48;110152;1242;59646;-74
2023/05/06 05:54:15;;;;;;;4.90;3.10;;;;;;;18.30;63.21;97642.92;110134;1244;71461;-75
2023/05/06 05:56:44;;;;;;;4.60;3.40;;;;;;;18.61;65.38;97641.63;110170;1242;69240;-76
2023/05/06 05:59:14;;;;;;;3.80;3.00;;;;;;;18.93;63.26;97647.05;110132;1241;69892;-76
2023/05/06 06:01:43;;;;;;;3.50;2.80;;;;;;;19.07;60.64;97646.11;110164;1242;59694;-76
2023/05/06 06:04:12;;;;;;;4.50;3.30;;;;;;;19.44;63.21;97645.18;110168;1245;59694;-75
2023/05/06 06:06:41;;;;;;;4.90;3.30;;;;;;;19.65;59.47;97643.67;110222;1241;71368;-77
2023/05/06 06:09:10;;;;;;;;;;;;;;;19.76;57.07;97641.65;110201;1240;68859;-75
2023/05/06 06:11:40;;;;;;;7.00;3.80;;;;;;;19.42;52.61;97635.88;110111;1245;69313;-74
2023/05/06 06:14:10;;;;;;;19.80;6.90;;;;;;;19.45;52.08;97638.90;110138;1242;59769;-74
2023/05/06 06:16:39;;;;;;;6.50;4.30;;;;;;;19.31;52.35;97641.13;110152;1245;59598;-75
2023/05/06 06:19:08;;;;;;;6.30;4.20;;;;;;;19.20;52.14;97641.67;110203;1249;70349;-75
2023/05/06 06:21:37;;;;;;;4.50;3.30;;;;;;;19.15;52.15;97637.08;110137;1245;69342;-74
2023/05/06 06:24:06;;;;;;;5.50;3.70;;;;;;;19.28;52.55;97638.21;110149;1245;69940;-75
2023/05/06 06:26:35;;;;;;;6.30;3.60;;;;;;;19.45;52.89;97636.41;110204;1242;59678;-73
2023/05/06 06:29:05;;;;;;;4.90;3.80;;;;;;;19.67;52.53;97634.69;110157;1243;59702;-74
2023/05/06 06:31:34;;;;;;;5.90;4.00;;;;;;;19.81;51.02;97640.79;110193;1242;71948;-74
2023/05/06 06:34:05;;;;;;;4.70;3.80;;;;;;;19.77;51.08;97637.13;110217;1242;69062;-74
2023/05/06 06:36:34;;;;;;;;;;;;;;;19.74;51.35;97637.66;110149;1241;70072;-74
2023/05/06 06:39:03;;;;;;;4.80;3.50;;;;;;;19.84;51.38;97634.79;110176;1241;59676;-73
2023/05/06 06:41:31;;;;;;;5.30;4.00;;;;;;;20.08;49.85;97632.58;110174;1242;59678;-75
2023/05/06 06:44:01;;;;;;;5.30;3.90;;;;;;;19.97;48.64;97634.17;110168;1242;70652;-75
2023/05/06 06:46:31;;;;;;;7.30;4.40;;;;;;;19.84;49.08;97635.70;110342;1241;69215;-74
2023/05/06 06:49:03;;;;;;;4.20;3.60;;;;;;;19.71;49.91;97638.64;110257;1242;69616;-73
2023/05/06 06:51:32;;;;;;;6.20;4.00;;;;;;;19.68;50.17;97641.43;110178;1242;59675;-73
2023/05/06 06:54:01;;;;;;;4.40;3.90;;;;;;;19.72;49.92;97636.77;110180;1247;59681;-73
2023/05/06 06:56:30;;;;;;;;;;;;;;;19.85;49.58;97637.21;110174;1242;71401;-73
2023/05/06 06:58:59;;;;;;;5.50;3.60;;;;;;;19.89;49.19;97637.77;110220;1242;69876;-73
2023/05/06 07:01:28;;;;;;;6.80;3.80;;;;;;;20.11;49.97;97634.20;110095;1244;69270;-72
2023/05/06 07:03:57;;;;;;;4.20;3.60;;;;;;;20.34;49.38;97638.43;110173;1242;59748;-73
2023/05/06 07:06:26;;;;;;;5.40;4.00;;;;;;;20.54;48.17;97633.52;110119;1242;59714;-73
2023/05/06 07:08:55;;;;;;;5.50;3.80;;;;;;;20.67;47.49;97637.42;110183;1240;71393;-73
2023/05/06 07:11:24;;;;;;;4.90;3.90;;;;;;;20.66;46.63;97636.23;110156;1242;69035;-72
2023/05/06 07:13:53;;;;;;;4.60;3.80;;;;;;;20.60;46.67;97636.83;110158;1241;70057;-73
2023/05/06 07:16:22;;;;;;;5.20;4.00;;;;;;;20.60;46.45;97638.90;110144;1242;59740;-74
2023/05/06 07:18:52;;;;;;;5.00;4.30;;;;;;;20.71;45.96;97639.99;110249;1242;59737;-74
2023/05/06 07:21:21;;;;;;;3.90;3.50;;;;;;;20.85;45.60;97639.48;110184;1241;70437;-73
2023/05/06 07:23:50;;;;;;;5.70;4.60;;;;;;;20.95;45.28;97643.19;110161;1242;67799;-72
2023/05/06 07:26:20;;;;;;;5.20;4.30;;;;;;;21.01;45.17;97644.63;110224;1242;69264;-72
2023/05/06 07:28:48;;;;;;;;;;;;;;;20.98;45.18;97647.30;110192;1242;59740;-72
2023/05/06 07:31:20;;;;;;;6.60;3.90;;;;;;;21.19;45.54;97649.55;110229;1241;59667;-72
2023/05/06 07:33:49;;;;;;;5.60;3.90;;;;;;;21.33;44.64;97648.67;110211;1242;70754;-72
2023/05/06 07:36:18;;;;;;;5.40;3.70;;;;;;;21.64;44.91;97651.90;110162;1242;69290;-72
2023/05/06 07:38:47;;;;;;;5.70;4.50;;;;;;;21.99;44.34;97647.71;110208;1242;69669;-71
2023/05/06 07:41:16;;;;;;;4.80;3.90;;;;;;;22.26;43.35;97647.16;110174;1242;59740;-73
2023/05/06 07:43:46;;;;;;;4.80;4.10;;;;;;;21.99;44.10;97646.74;110206;1242;60097;-73
2023/05/06 07:46:14;;;;;;;5.60;4.70;;;;;;;22.18;43.65;97643.39;110162;1242;71486;-71
2023/05/06 07:48:43;;;;;;;6.00;3.90;;;;;;;22.53;42.99;97642.59;110173;1240;69245;-72
2023/05/06 07:51:12;;;;;;;5.40;4.10;;;;;;;22.78;42.56;97637.50;110111;1240;69344;-72
2023/05/06 07:53:41;;;;;;;5.00;4.30;;;;;;;22.94;41.99;97639.36;110154;1242;59713;-72
2023/05/06 07:56:10;;;;;;;4.50;3.80;;;;;;;23.00;40.73;97635.08;110173;1243;59713;-72
2023/05/06 07:58:39;;;;;;;6.00;3.60;;;;;;;23.01;40.89;97636.17;110179;1244;70980;-71
2023/05/06 08:01:08;;;;;;;5.10;3.80;;;;;;;23.06;41.60;97636.16;110140;1242;69639;-72
2023/05/06 08:03:37;;;;;;;4.30;3.70;;;;;;;23.16;40.67;97636.20;110140;1246;69888;-72
2023/05/06 08:06:07;;;;;;;5.20;3.70;;;;;;;23.49;41.03;97637.67;110187;1240;59737;-72
2023/05/06 08:08:36;;;;;;;5.30;4.00;;;;;;;23.79;40.23;97640.45;110182;1242;59687;-72
2023/05/06 08:11:05;;;;;;;5.40;3.80;;;;;;;23.94;38.75;97642.33;110232;1242;70969;-72
2023/05/06 08:13:34;;;;;;;4.20;3.50;;;;;;;23.91;38.05;97642.66;110210;1242;68490;-73
2023/05/06 08:16:05;;;;;;;4.00;3.20;;;;;;;23.94;36.67;97642.13;110207;1242;69259;-72
2023/05/06 08:18:34;;;;;;;3.60;3.20;;;;;;;23.80;35.90;97639.68;110187;1242;60088;-72
2023/05/06 08:21:03;;;;;;;3.90;3.00;;;;;;;23.76;35.55;97641.86;110226;1241;59737;-72
2023/05/06 08:23:32;;;;;;;;;;;;;;;23.76;35.78;97643.25;110156;1242;70621;-72
2023/05/06 08:26:00;;;;;;;4.60;3.00;;;;;;;23.71;35.65;97639.17;110135;1242;69199;-72
2023/05/06 08:28:30;;;;;;;4.10;3.30;;;;;;;23.93;35.72;97643.34;110129;1241;69310;-69
2023/05/06 08:31:01;;;;;;;4.50;3.30;;;;;;;24.00;35.98;97634.75;110192;1242;59749;-72
2023/05/06 08:33:30;;;;;;;4.30;3.30;;;;;;;23.97;36.37;97636.55;110319;1242;59605;-72
2023/05/06 08:35:59;;;;;;;4.10;3.40;;;;;;;24.08;35.52;97637.36;110165;1242;71938;-72
2023/05/06 08:38:27;;;;;;;3.60;3.00;;;;;;;24.01;35.87;97638.77;110308;1242;69038;-72
2023/05/06 08:41:02;;;;;;;4.00;3.30;;;;;;;24.18;35.56;97632.29;110248;1242;68654;-72
2023/05/06 08:43:39;;;;;;;4.80;3.40;;;;;;;24.33;35.57;97632.74;110128;1242;60107;-72
2023/05/06 08:46:08;;;;;;;4.70;3.40;;;;;;;24.07;35.79;97642.94;110180;1242;59799;-73
2023/05/06 08:48:38;;;;;;;4.00;3.50;;;;;;;23.98;36.28;97641.30;110193;1242;70330;-73
2023/05/06 08:51:08;;;;;;;4.90;2.80;;;;;;;24.01;36.45;97634.43;110154;1242;69060;-73
2023/05/06 08:53:41;;;;;;;5.50;3.70;;;;;;;24.12;36.39;97631.81;110125;1242;69646;-74
2023/05/06 08:56:12;;;;;;;4.70;3.10;;;;;;;24.17;35.26;97621.42;110161;1242;59735;-73
2023/05/06 08:58:45;;;;;;;3.80;3.20;;;;;;;24.31;35.33;97621.23;110197;1242;59705;-73
2023/05/06 09:01:17;;;;;;;5.00;3.00;;;;;;;24.37;36.29;97619.09;110205;1242;71419;-73
2023/05/06 09:03:47;;;;;;;4.80;3.20;;;;;;;24.67;35.32;97613.35;110170;1242;68308;-72
2023/05/06 09:06:16;;;;;;;4.20;2.90;;;;;;;24.01;36.04;97618.23;110145;1241;69292;-73
2023/05/06 09:08:45;;;;;;;;;;;;;;;24.10;35.95;97618.77;110163;1242;59769;-73
2023/05/06 09:11:30;;;;;;;3.40;2.80;;;;;;;24.50;35.35;97614.55;110204;1243;59685;-73
2023/05/06 09:14:16;;;;;;;3.50;3.10;;;;;;;25.02;35.02;97616.15;110165;1242;71954;-72
2023/05/06 09:16:48;;;;;;;3.60;2.90;;;;;;;25.48;33.96;97619.16;110189;1242;70010;-73
2023/05/06 09:19:20;;;;;;;3.30;2.70;;;;;;;25.70;34.17;97614.34;110141;1242;69183;-73
2023/05/06 09:21:50;;;;;;;4.70;3.40;;;;;;;26.11;34.15;97616.14;110191;1241;59688;-73
2023/05/06 09:24:20;;;;;;;4.20;3.10;;;;;;;26.33;32.67;97613.57;110267;1241;60028;-73
2023/05/06 09:26:54;;;;;;;3.30;3.00;;;;;;;26.82;32.37;97612.82;110305;1242;70835;-72
2023/05/06 09:29:22;;;;;;;3.00;2.70;;;;;;;27.13;32.14;97610.11;110170;1242;68274;-73
2023/05/06 09:31:53;;;;;;;3.60;2.90;;;;;;;27.24;32.00;97607.73;110222;1247;68517;-73
2023/05/06 09:34:22;;;;;;;4.20;3.00;;;;;;;27.52;32.58;97607.89;110235;1242;59761;-73
2023/05/06 09:36:52;;;;;;;3.50;2.90;;;;;;;27.92;30.81;97610.09;110193;1243;59676;-71
2023/05/06 09:39:25;;;;;;;3.80;3.30;;;;;;;27.98;29.79;97608.09;110220;1242;72319;-72
2023/05/06 09:41:54;;;;;;;6.20;2.70;;;;;;;27.72;29.92;97611.94;110173;1242;70123;-73
2023/05/06 09:44:24;;;;;;;4.60;3.40;;;;;;;27.52;30.42;97606.69;110328;1242;69203;-72
2023/05/06 09:46:54;;;;;;;3.30;2.90;;;;;;;27.88;29.90;97604.52;110208;1242;59779;-72
2023/05/06 09:49:22;;;;;;;4.40;2.80;;;;;;;27.95;30.26;97596.83;110197;1242;59675;-74
2023/05/06 09:51:52;;;;;;;4.90;3.20;;;;;;;28.22;29.89;97592.13;110169;1242;72364;-72
2023/05/06 09:54:21;;;;;;;4.70;2.90;;;;;;;28.25;29.66;97590.32;110192;1242;68389;-73
2023/05/06 09:56:51;;;;;;;3.40;2.90;;;;;;;28.04;30.26;97588.45;110197;1241;69345;-72
2023/05/06 09:59:23;;;;;;;3.40;2.80;;;;;;;28.49;29.65;97589.83;110130;1241;60066;-71
2023/05/06 10:01:53;;;;;;;4.20;3.10;;;;;;;28.79;29.28;97585.48;110240;1240;59684;-73
2023/05/06 10:04:24;;;;;;;3.50;2.80;;;;;;;28.92;28.53;97586.55;110198;1242;71404;-70
2023/05/06 10:06:55;;;;;;;5.00;3.20;;;;;;;28.89;28.85;97580.48;110239;1242;69062;-72
2023/05/06 10:09:26;;;;;;;3.70;2.50;;;;;;;28.75;28.78;97579.27;110211;1242;69862;-73
2023/05/06 10:11:58;;;;;;;5.50;3.10;;;;;;;28.80;28.60;97574.59;110181;1245;59685;-72
2023/05/06 10:14:27;;;;;;;3.30;2.60;;;;;;;29.43;27.64;97568.76;110206;1242;59630;-72
2023/05/06 10:16:56;;;;;;;2.90;2.60;;;;;;;29.47;27.15;97568.45;110159;1242;70970;-72
2023/05/06 10:19:27;;;;;;;4.90;2.90;;;;;;;28.97;27.55;97562.45;110169;1242;69042;-72
2023/05/06 10:22:06;;;;;;;4.40;3.20;;;;;;;28.77;26.94;97560.09;110151;1242;68809;-72
2023/05/06 10:24:45;;;;;;;4.30;2.40;;;;;;;27.40;28.55;97559.48;110157;1241;59702;-72
2023/05/06 10:27:19;;;;;;;4.30;2.70;;;;;;;26.52;29.97;97559.10;110173;1242;59696;-72
2023/05/06 10:29:52;;;;;;;4.50;3.40;;;;;;;26.52;30.15;97553.65;110180;1243;71366;-71
2023/05/06 10:32:21;;;;;;;3.20;2.70;;;;;;;26.27;30.42;97554.98;110161;1242;68922;-72
2023/05/06 10:34:56;;;;;;;4.40;2.80;;;;;;;25.95;30.93;97554.46;110177;1243;69277;-72
2023/05/06 10:37:27;;;;;;;3.50;2.80;;;;;;;26.47;30.09;97554.02;110181;1242;59732;-71
2023/05/06 10:39:56;;;;;;;3.60;3.10;;;;;;;27.09;30.40;97551.64;110231;1246;59744;-73
2023/05/06 10:42:29;;;;;;;5.10;3.10;;;;;;;27.67;29.44;97552.09;110338;1243;71950;-72
2023/05/06 10:45:03;;;;;;;3.40;2.80;;;;;;;28.06;29.61;97547.30;110439;1240;69208;-71
2023/05/06 10:47:56;;;;;;;4.60;2.80;;;;;;;28.46;28.76;97545.31;110383;1242;68830;-72
2023/05/06 10:50:26;;;;;;;2.90;2.50;;;;;;;28.63;27.90;97545.35;110558;1243;59688;-72
2023/05/06 10:52:58;;;;;;;3.90;2.90;;;;;;;29.00;27.76;97545.95;110652;1242;59688;-71
2023/05/06 10:55:31;;;;;;;3.70;3.10;;;;;;;29.03;27.53;97546.02;110627;1245;71436;-71
2023/05/06 10:58:12;;;;;;;4.40;3.50;;;;;;;29.00;26.93;97543.83;110583;1243;69210;-72
2023/05/06 11:00:52;;;;;;;3.70;3.20;;;;;;;27.75;27.58;97543.17;110548;1242;69297;-73
2023/05/06 11:03:23;;;;;;;4.00;3.00;;;;;;;26.01;29.44;97540.69;110716;1241;59679;-73
2023/05/06 11:05:51;;;;;;;3.90;2.70;;;;;;;25.94;30.62;97541.94;110628;1242;59716;-72
2023/05/06 11:08:22;;;;;;;4.80;3.60;;;;;;;26.04;31.56;97539.92;110462;1242;71436;-73
2023/05/06 11:10:52;;;;;;;3.80;3.30;;;;;;;26.10;30.84;97531.14;110262;1240;69424;-72
2023/05/06 11:13:33;;;;;;;4.30;3.10;;;;;;;25.44;32.12;97535.42;110357;1240;69236;-72
2023/05/06 11:16:02;;;;;;;3.50;2.80;;;;;;;25.18;34.11;97533.85;110236;1246;59696;-73
2023/05/06 11:18:33;;;;;;;3.50;3.10;;;;;;;26.13;33.70;97530.14;110314;1241;59696;-73
2023/05/06 11:21:06;;;;;;;4.10;2.90;;;;;;;26.37;31.85;97534.63;110212;1240;72097;-73
2023/05/06 11:24:03;;;;;;;4.00;3.20;;;;;;;25.97;31.16;97538.68;110205;1252;69649;-74
2023/05/06 11:26:32;;;;;;;4.20;3.20;;;;;;;25.50;32.35;97537.82;110182;1243;69937;-73
2023/05/06 11:29:03;;;;;;;4.70;3.00;;;;;;;25.27;32.84;97531.76;110205;1242;59674;-73
2023/05/06 11:31:38;;;;;;;4.00;3.20;;;;;;;24.90;33.18;97526.05;110149;1243;59642;-72
2023/05/06 11:34:10;;;;;;;4.70;3.30;;;;;;;24.71;33.27;97526.42;110171;1243;71378;-74
2023/05/06 11:36:51;;;;;;;3.70;2.70;;;;;;;24.40;33.75;97525.58;110246;1243;69224;-73
2023/05/06 11:39:20;;;;;;;3.40;2.60;;;;;;;24.09;34.09;97522.96;110188;1247;69233;-74
2023/05/06 11:41:52;;;;;;;3.90;3.20;;;;;;;23.83;34.89;97521.27;110239;1243;59630;-72
2023/05/06 11:44:26;;;;;;;4.20;3.10;;;;;;;23.73;34.49;97520.30;110242;1243;59685;-73
2023/05/06 11:47:00;;;;;;;3.80;3.30;;;;;;;23.55;36.16;97521.38;110178;1243;71208;-73